createdAt,value
2019-04-21T00:00:54.242Z,16.87
2019-04-21T00:03:40.216Z,16.87
2019-04-21T00:06:36.842Z,14.83
2019-04-21T00:09:11.403Z,16.40
2019-04-21T00:11:34.300Z,16.47
2019-04-21T00:14:19.941Z,17.63
2019-04-21T00:17:03.093Z,16.77
2019-04-21T00:22:53.560Z,17.23
2019-04-21T00:25:46.068Z,16.70
2019-04-21T00:28:28.858Z,16.40
2019-04-21T00:31:12.374Z,17.20
2019-04-21T00:33:46.068Z,17.53
2019-04-21T00:36:42.861Z,16.53
2019-04-21T00:39:28.879Z,17.53
2019-04-21T00:42:09.871Z,18.27
2019-04-21T00:45:00.542Z,16.50
2019-04-21T00:47:54.563Z,17.53
2019-04-21T00:53:35.716Z,17.13
2019-04-21T00:56:18.163Z,19.10
2019-04-21T00:59:08.751Z,17.60
2019-04-21T01:01:48.114Z,17.53
2019-04-21T01:04:42.591Z,17.47
2019-04-21T01:07:31.558Z,19.00
2019-04-21T01:10:12.225Z,17.47
2019-04-21T01:13:16.902Z,18.70
2019-04-21T01:15:59.624Z,18.90
2019-04-21T01:18:49.296Z,18.23
2019-04-21T01:21:17.289Z,19.73
2019-04-21T01:24:14.569Z,20.33
2019-04-21T01:27:04.789Z,21.67
2019-04-21T01:30:08.622Z,22.10
2019-04-21T01:32:53.323Z,21.27
2019-04-21T01:35:44.066Z,21.83
2019-04-21T01:38:34.356Z,21.17
2019-04-21T01:41:29.614Z,19.83
2019-04-21T01:44:19.694Z,20.93
2019-04-21T01:46:58.598Z,19.30
2019-04-21T01:49:43.132Z,18.27
2019-04-21T01:58:36.585Z,16.70
2019-04-21T02:01:30.161Z,17.83
2019-04-21T02:04:20.781Z,17.80
2019-04-21T02:06:57.362Z,16.87
2019-04-21T02:09:38.190Z,16.13
2019-04-21T02:12:18.869Z,16.43
2019-04-21T02:15:04.631Z,15.93
2019-04-21T02:17:47.046Z,16.40
2019-04-21T02:20:18.245Z,15.30
2019-04-21T02:26:00.043Z,16.37
2019-04-21T02:28:42.773Z,15.13
2019-04-21T02:31:26.639Z,16.27
2019-04-21T02:34:06.497Z,16.27
2019-04-21T02:37:05.337Z,15.33
2019-04-21T02:39:43.607Z,15.80
2019-04-21T02:45:03.881Z,15.37
2019-04-21T02:50:43.751Z,16.03
2019-04-21T02:53:12.289Z,15.87
2019-04-21T02:55:56.372Z,15.20
2019-04-21T02:58:41.594Z,15.70
2019-04-21T03:01:59.193Z,14.20
2019-04-21T03:05:07.385Z,15.43
2019-04-21T03:10:54.106Z,14.27
2019-04-21T03:16:22.996Z,13.90
2019-04-21T03:19:16.002Z,16.20
2019-04-21T03:22:08.069Z,14.07
2019-04-21T03:27:50.135Z,13.17
2019-04-21T03:30:59.552Z,12.93
2019-04-21T03:38:54.985Z,13.37
2019-04-21T03:42:11.358Z,12.30
2019-04-21T03:44:37.274Z,11.30
2019-04-21T03:50:24.188Z,12.30
2019-04-21T03:59:01.972Z,13.17
2019-04-21T04:02:08.603Z,13.40
2019-04-21T04:11:12.332Z,13.37
2019-04-21T04:13:56.307Z,12.30
2019-04-21T04:16:39.462Z,11.73
2019-04-21T04:19:37.942Z,12.40
2019-04-21T04:25:19.335Z,12.30
2019-04-21T04:30:47.582Z,11.30
2019-04-21T04:36:33.905Z,11.80
2019-04-21T04:39:45.974Z,11.87
2019-04-21T04:48:07.471Z,11.17
2019-04-21T04:53:44.295Z,10.33
2019-04-21T04:56:48.268Z,11.17
2019-04-21T04:59:32.516Z,11.37
2019-04-21T05:02:07.745Z,11.47
2019-04-21T05:05:01.635Z,11.23
2019-04-21T05:12:40.245Z,10.53
2019-04-21T05:15:16.092Z,10.67
2019-04-21T05:18:08.113Z,10.60
2019-04-21T05:20:29.902Z,11.00
2019-04-21T05:23:19.830Z,11.20
2019-04-21T05:25:59.983Z,9.87
2019-04-21T05:28:47.263Z,10.43
2019-04-21T05:32:08.083Z,11.00
2019-04-21T05:40:52.418Z,10.20
2019-04-21T05:43:48.149Z,9.43
2019-04-21T05:46:38.659Z,9.43
2019-04-21T05:49:46.655Z,9.47
2019-04-21T05:55:35.974Z,8.90
2019-04-21T05:58:26.283Z,8.93
2019-04-21T06:01:17.715Z,8.43
2019-04-21T06:03:49.195Z,8.03
2019-04-21T06:06:37.521Z,8.13
2019-04-21T06:09:17.859Z,7.67
2019-04-21T06:11:55.616Z,7.63
2019-04-21T06:14:43.973Z,8.30
2019-04-21T06:17:30.288Z,8.10
2019-04-21T06:20:07.931Z,7.97
2019-04-21T06:22:50.784Z,8.33
2019-04-21T06:25:54.593Z,8.77
2019-04-21T06:28:11.987Z,7.33
2019-04-21T06:31:09.723Z,7.53
2019-04-21T06:33:41.747Z,7.43
2019-04-21T06:36:43.980Z,7.73
2019-04-21T06:39:31.654Z,7.13
2019-04-21T06:42:05.733Z,7.30
2019-04-21T06:44:54.533Z,7.60
2019-04-21T06:47:38.006Z,7.40
2019-04-21T06:50:16.153Z,7.10
2019-04-21T06:52:53.814Z,6.90
2019-04-21T06:55:33.929Z,7.43
2019-04-21T06:58:18.342Z,7.20
2019-04-21T07:01:03.785Z,6.87
2019-04-21T07:03:50.664Z,6.87
2019-04-21T07:06:30.544Z,6.33
2019-04-21T07:11:48.772Z,5.87
2019-04-21T07:14:40.900Z,6.13
2019-04-21T07:17:24.260Z,5.80
2019-04-21T07:22:42.796Z,5.43
2019-04-21T07:25:28.350Z,5.83
2019-04-21T07:28:05.674Z,5.90
2019-04-21T07:30:52.708Z,6.47
2019-04-21T07:36:21.880Z,5.73
2019-04-21T07:38:55.379Z,6.20
2019-04-21T07:41:34.088Z,6.20
2019-04-21T07:44:17.110Z,5.43
2019-04-21T07:47:00.121Z,6.33
2019-04-21T07:49:56.573Z,6.00
2019-04-21T07:53:05.191Z,5.90
2019-04-21T07:58:14.996Z,6.07
2019-04-21T08:03:46.771Z,6.20
2019-04-21T08:06:26.816Z,5.87
2019-04-21T08:09:08.921Z,5.20
2019-04-21T08:11:47.754Z,5.00
2019-04-21T08:14:35.551Z,5.77
2019-04-21T08:17:16.485Z,5.67
2019-04-21T08:19:55.614Z,5.70
2019-04-21T08:22:47.915Z,5.40
2019-04-21T08:25:21.822Z,5.97
2019-04-21T08:28:07.389Z,5.97
2019-04-21T08:30:50.207Z,5.57
2019-04-21T08:38:59.751Z,5.67
2019-04-21T08:41:39.568Z,6.47
2019-04-21T08:44:25.802Z,5.83
2019-04-21T08:47:07.705Z,5.90
2019-04-21T08:49:49.162Z,6.30
2019-04-21T08:52:37.053Z,5.93
2019-04-21T08:55:31.808Z,5.80
2019-04-21T08:58:36.976Z,6.10
2019-04-21T09:01:39.839Z,5.40
2019-04-21T09:04:21.161Z,6.03
2019-04-21T09:07:04.890Z,6.00
2019-04-21T09:09:41.214Z,6.07
2019-04-21T09:12:21.227Z,5.67
2019-04-21T09:15:08.064Z,7.33
2019-04-21T09:17:43.773Z,5.90
2019-04-21T09:20:32.707Z,6.10
2019-04-21T09:23:13.347Z,5.13
2019-04-21T09:26:00.123Z,5.90
2019-04-21T09:28:37.025Z,6.20
2019-04-21T09:31:05.324Z,6.13
2019-04-21T09:33:51.889Z,5.90
2019-04-21T09:36:36.135Z,5.70
2019-04-21T09:39:18.066Z,5.93
2019-04-21T09:41:59.119Z,5.67
2019-04-21T09:44:42.552Z,5.33
2019-04-21T09:47:24.903Z,5.40
2019-04-21T09:50:06.452Z,5.30
2019-04-21T09:52:54.198Z,4.80
2019-04-21T09:55:36.479Z,3.93
2019-04-21T09:58:21.783Z,4.27
2019-04-21T10:01:06.185Z,3.50
2019-04-21T10:03:46.105Z,3.90
2019-04-21T10:06:20.807Z,3.50
2019-04-21T10:09:04.771Z,2.97
2019-04-21T10:11:45.842Z,3.30
2019-04-21T10:14:26.482Z,3.83
2019-04-21T10:17:27.441Z,2.97
2019-04-21T10:20:09.469Z,3.70
2019-04-21T10:22:50.911Z,4.60
2019-04-21T10:25:32.499Z,3.47
2019-04-21T10:28:14.887Z,3.10
2019-04-21T10:30:56.527Z,3.37
2019-04-21T10:33:37.769Z,3.20
2019-04-21T10:36:19.096Z,4.13
2019-04-21T10:39:02.210Z,3.63
2019-04-21T10:41:43.568Z,3.87
2019-04-21T10:44:13.505Z,3.83
2019-04-21T10:47:02.660Z,3.60
2019-04-21T10:49:52.851Z,3.43
2019-04-21T10:53:00.924Z,3.10
2019-04-21T10:56:07.202Z,3.53
2019-04-21T11:01:41.063Z,2.73
2019-04-21T11:04:34.600Z,3.33
2019-04-21T11:07:52.819Z,2.97
2019-04-21T11:10:27.812Z,4.10
2019-04-21T11:13:52.633Z,2.83
2019-04-21T11:16:27.143Z,2.70
2019-04-21T11:19:34.879Z,3.03
2019-04-21T11:22:23.122Z,3.00
2019-04-21T11:28:05.131Z,2.93
2019-04-21T11:30:54.915Z,2.53
2019-04-21T11:33:45.297Z,2.83
2019-04-21T11:36:33.697Z,2.47
2019-04-21T11:45:36.627Z,2.77
2019-04-21T11:51:24.961Z,2.50
2019-04-21T11:54:15.076Z,2.50
2019-04-21T11:56:57.105Z,2.57
2019-04-21T11:59:37.623Z,3.00
2019-04-21T12:02:21.644Z,2.70
2019-04-21T12:05:03.529Z,2.90
2019-04-21T12:07:45.213Z,2.87
2019-04-21T12:10:27.128Z,2.80
2019-04-21T12:13:08.110Z,2.50
2019-04-21T12:15:49.209Z,2.80
2019-04-21T12:18:31.718Z,2.80
2019-04-21T12:21:13.601Z,2.80
2019-04-21T12:23:54.535Z,2.97
2019-04-21T12:26:35.951Z,2.90
2019-04-21T12:29:16.745Z,2.67
2019-04-21T12:32:17.881Z,2.70
2019-04-21T12:34:59.782Z,2.67
2019-04-21T12:37:41.067Z,2.50
2019-04-21T12:40:21.849Z,3.07
2019-04-21T12:43:02.984Z,3.20
2019-04-21T12:45:44.230Z,2.77
2019-04-21T12:48:26.216Z,2.70
2019-04-21T12:51:07.845Z,3.07
2019-04-21T12:53:49.857Z,2.77
2019-04-21T12:56:31.565Z,2.33
2019-04-21T12:59:12.366Z,2.37
2019-04-21T13:01:54.827Z,2.37
2019-04-21T13:04:35.796Z,2.60
2019-04-21T13:07:17.304Z,2.40
2019-04-21T13:09:58.146Z,2.67
2019-04-21T13:12:39.054Z,2.50
2019-04-21T13:15:20.167Z,2.40
2019-04-21T13:18:00.721Z,2.30
2019-04-21T13:20:42.290Z,2.33
2019-04-21T13:23:23.413Z,2.50
2019-04-21T13:26:04.914Z,2.23
2019-04-21T13:28:47.922Z,2.60
2019-04-21T13:31:31.974Z,2.30
2019-04-21T13:34:13.812Z,2.20
2019-04-21T13:36:54.881Z,2.27
2019-04-21T13:40:03.375Z,2.60
2019-04-21T13:42:32.406Z,2.47
2019-04-21T13:45:08.114Z,2.40
2019-04-21T13:47:48.594Z,2.50
2019-04-21T13:50:31.067Z,2.30
2019-04-21T13:53:12.396Z,2.30
2019-04-21T13:55:53.357Z,2.47
2019-04-21T13:58:34.653Z,2.10
2019-04-21T14:01:16.024Z,2.30
2019-04-21T14:03:57.756Z,2.67
2019-04-21T14:06:40.445Z,2.43
2019-04-21T14:09:21.882Z,2.80
2019-04-21T14:12:03.419Z,2.80
2019-04-21T14:14:46.217Z,2.50
2019-04-21T14:17:28.724Z,3.27
2019-04-21T14:20:09.562Z,2.20
2019-04-21T14:25:10.026Z,2.67
2019-04-21T14:27:52.521Z,2.13
2019-04-21T14:30:34.648Z,2.20
2019-04-21T14:33:16.172Z,2.57
2019-04-21T14:35:56.956Z,2.40
2019-04-21T14:38:38.555Z,2.80
2019-04-21T14:41:19.993Z,2.50
2019-04-21T14:44:02.789Z,2.17
2019-04-21T14:47:03.145Z,2.30
2019-04-21T14:50:03.098Z,3.10
2019-04-21T14:52:44.352Z,2.03
2019-04-21T14:55:26.948Z,2.40
2019-04-21T14:58:09.422Z,2.13
2019-04-21T15:00:51.408Z,1.90
2019-04-21T15:03:34.191Z,2.40
2019-04-21T15:06:15.740Z,2.20
2019-04-21T15:08:57.516Z,2.40
2019-04-21T15:11:39.860Z,2.27
2019-04-21T15:14:22.114Z,2.40
2019-04-21T15:17:03.292Z,2.60
2019-04-21T15:19:54.008Z,3.00
2019-04-21T15:22:28.253Z,2.50
2019-04-21T15:25:10.016Z,2.40
2019-04-21T15:27:50.769Z,2.63
2019-04-21T15:30:32.486Z,2.53
2019-04-21T15:33:13.585Z,2.13
2019-04-21T15:35:55.369Z,2.23
2019-04-21T15:38:37.822Z,2.40
2019-04-21T15:41:18.626Z,2.60
2019-04-21T15:44:01.264Z,2.20
2019-04-21T15:46:41.960Z,2.73
2019-04-21T15:49:23.148Z,2.30
2019-04-21T15:52:04.219Z,2.83
2019-04-21T15:54:45.163Z,2.17
2019-04-21T15:57:30.314Z,2.57
2019-04-21T16:00:30.966Z,2.40
2019-04-21T16:03:12.952Z,2.60
2019-04-21T16:05:53.786Z,2.70
2019-04-21T16:08:35.232Z,3.03
2019-04-21T16:11:17.646Z,2.40
2019-04-21T16:13:59.658Z,2.33
2019-04-21T16:16:41.198Z,2.90
2019-04-21T16:19:23.037Z,2.40
2019-04-21T16:22:03.511Z,2.80
2019-04-21T16:24:44.081Z,2.23
2019-04-21T16:27:25.689Z,2.00
2019-04-21T16:30:06.218Z,2.40
2019-04-21T16:32:46.573Z,2.90
2019-04-21T16:35:27.430Z,2.37
2019-04-21T16:38:07.950Z,2.13
2019-04-21T16:40:57.265Z,2.60
2019-04-21T16:43:33.334Z,3.10
2019-04-21T16:46:15.706Z,2.60
2019-04-21T16:48:57.737Z,2.70
2019-04-21T16:51:40.330Z,2.87
2019-04-21T16:54:26.275Z,2.70
2019-04-21T16:57:10.048Z,2.00
2019-04-21T16:59:56.534Z,2.20
2019-04-21T17:02:38.633Z,2.70
2019-04-21T17:05:20.406Z,3.10
2019-04-21T17:08:01.850Z,3.10
2019-04-21T17:10:56.971Z,3.57
2019-04-21T17:13:25.802Z,3.10
2019-04-21T17:16:38.696Z,2.60
2019-04-21T17:19:00.594Z,3.13
2019-04-21T17:21:32.082Z,3.07
2019-04-21T17:24:14.600Z,2.73
2019-04-21T17:26:55.302Z,2.90
2019-04-21T17:29:36.664Z,3.10
2019-04-21T17:32:18.392Z,2.20
2019-04-21T17:34:59.534Z,4.80
2019-04-21T17:37:40.570Z,4.97
2019-04-21T17:40:21.840Z,5.00
2019-04-21T17:43:08.715Z,5.40
2019-04-21T17:45:45.032Z,5.93
2019-04-21T17:48:27.009Z,5.83
2019-04-21T17:51:13.700Z,5.77
2019-04-21T17:57:24.577Z,5.57
2019-04-21T18:00:06.937Z,3.37
2019-04-21T18:02:50.217Z,4.90
2019-04-21T18:05:31.965Z,6.40
2019-04-21T18:08:14.042Z,6.17
2019-04-21T18:10:48.000Z,5.77
2019-04-21T18:13:20.027Z,6.20
2019-04-21T18:16:09.701Z,5.87
2019-04-21T18:18:42.121Z,5.73
2019-04-21T18:21:51.403Z,5.70
2019-04-21T18:24:35.377Z,5.43
2019-04-21T18:26:59.987Z,5.43
2019-04-21T18:29:44.569Z,5.87
2019-04-21T18:32:38.777Z,6.23
2019-04-21T18:44:56.193Z,6.53
2019-04-21T18:47:48.936Z,7.20
2019-04-21T18:50:51.089Z,6.23
2019-04-21T18:56:29.530Z,6.60
2019-04-21T18:59:23.395Z,6.03
2019-04-21T19:02:06.295Z,7.10
2019-04-21T19:04:44.165Z,7.30
2019-04-21T19:07:45.525Z,8.17
2019-04-21T19:10:35.566Z,7.83
2019-04-21T19:16:07.550Z,7.07
2019-04-21T19:18:48.301Z,6.33
2019-04-21T19:21:24.189Z,6.33
2019-04-21T19:24:24.314Z,6.90
2019-04-21T19:27:11.983Z,6.30
2019-04-21T19:30:05.359Z,6.10
2019-04-21T19:32:49.700Z,7.03
2019-04-21T19:35:17.533Z,6.37
2019-04-21T19:38:10.188Z,6.10
2019-04-21T19:41:15.529Z,6.60
2019-04-21T19:44:09.332Z,6.10
2019-04-21T19:46:55.589Z,6.60
2019-04-21T19:49:49.231Z,6.27
2019-04-21T19:52:26.988Z,6.20
2019-04-21T19:55:25.421Z,6.30
2019-04-21T19:58:14.795Z,5.60
2019-04-21T20:00:57.416Z,6.37
2019-04-21T20:03:38.738Z,6.00
2019-04-21T20:06:34.407Z,6.67
2019-04-21T20:09:17.766Z,6.80
2019-04-21T20:11:58.147Z,5.80
2019-04-21T20:15:07.485Z,6.80
2019-04-21T20:17:31.076Z,7.00
2019-04-21T20:19:54.104Z,6.03
2019-04-21T20:22:39.265Z,6.20
2019-04-21T20:25:21.276Z,6.00
2019-04-21T20:28:07.199Z,6.03
2019-04-21T20:31:03.897Z,5.77
2019-04-21T20:33:55.235Z,5.90
2019-04-21T20:36:28.451Z,5.60
2019-04-21T20:38:55.897Z,5.67
2019-04-21T20:41:41.004Z,5.90
2019-04-21T20:44:29.552Z,5.43
2019-04-21T20:47:07.415Z,5.70
2019-04-21T20:49:50.559Z,5.43
2019-04-21T20:52:42.094Z,5.73
2019-04-21T20:55:16.690Z,5.90
2019-04-21T20:58:02.461Z,5.80
2019-04-21T21:01:04.239Z,6.70
2019-04-21T21:03:30.412Z,6.07
2019-04-21T21:06:15.796Z,5.50
2019-04-21T21:08:58.673Z,6.37
2019-04-21T21:11:37.019Z,6.20
2019-04-21T21:14:26.902Z,5.93
2019-04-21T21:17:06.595Z,6.37
2019-04-21T21:19:53.639Z,5.80
2019-04-21T21:22:29.050Z,6.00
2019-04-21T21:25:18.730Z,5.60
2019-04-21T21:27:48.238Z,5.70
2019-04-21T21:30:33.844Z,5.77
2019-04-21T21:33:22.081Z,5.87
2019-04-21T21:36:06.680Z,5.80
2019-04-21T21:38:51.725Z,6.50
2019-04-21T21:41:21.617Z,6.07
2019-04-21T21:44:01.810Z,5.93
2019-04-21T21:46:48.510Z,7.07
2019-04-21T21:49:33.713Z,6.27
2019-04-21T21:52:14.552Z,6.23
2019-04-21T21:54:45.609Z,6.73
2019-04-21T21:57:28.312Z,6.00
2019-04-21T22:00:12.293Z,6.40
2019-04-21T22:02:54.967Z,6.33
2019-04-21T22:05:45.522Z,6.63
2019-04-21T22:08:18.529Z,6.40
2019-04-21T22:10:59.521Z,6.50
2019-04-21T22:13:47.440Z,6.80
2019-04-21T22:16:27.554Z,6.43
2019-04-21T22:19:21.937Z,6.40
2019-04-21T22:22:05.162Z,6.47
2019-04-21T22:24:48.322Z,5.73
2019-04-21T22:27:13.199Z,5.93
2019-04-21T22:29:59.369Z,6.27
2019-04-21T22:32:36.957Z,5.77
2019-04-21T22:35:28.469Z,5.40
2019-04-21T22:38:14.979Z,5.57
2019-04-21T22:40:55.458Z,5.67
2019-04-21T22:43:32.832Z,5.67
2019-04-21T22:46:11.909Z,5.53
2019-04-21T22:48:56.232Z,5.63
2019-04-21T22:51:40.622Z,6.00
2019-04-21T22:54:20.766Z,6.03
2019-04-21T22:57:07.331Z,5.20
2019-04-21T22:59:46.333Z,5.87
2019-04-21T23:02:29.444Z,6.00
2019-04-21T23:05:07.985Z,5.97
2019-04-21T23:07:56.319Z,6.13
2019-04-21T23:10:33.019Z,5.30
2019-04-21T23:13:19.822Z,6.27
2019-04-21T23:15:59.414Z,6.03
2019-04-21T23:18:55.497Z,5.47
2019-04-21T23:21:36.202Z,4.77
2019-04-21T23:24:31.617Z,5.03
2019-04-21T23:26:47.280Z,4.63
2019-04-21T23:29:57.362Z,4.30
2019-04-21T23:35:30.425Z,5.00
2019-04-21T23:38:12.924Z,4.77
2019-04-21T23:41:05.367Z,4.40
2019-04-21T23:43:33.523Z,4.93
2019-04-21T23:46:26.762Z,4.50
2019-04-21T23:49:23.167Z,4.70
2019-04-21T23:54:55.600Z,4.63
2019-04-21T23:57:48.049Z,4.13
